Time;durP1;ratioP1;P1;durP2;ratioP2;P2;SDS_P1;SDS_P2;PMS_P1;PMS_P2;Temp;Humidity;BMP_temperature;BMP_pressure;BME280_temperature;BME280_humidity;BME280_pressure;Samples;Min_cycle;Max_cycle;Signal;HPM_P1;HPM_P2
2024/04/02 00:00:19;;;;;;;9.57;5.32;;;;;;;-146.25;100.00;52575.00;2071501;28;20516;-61
2024/04/02 00:01:20;;;;;;;9.20;5.60;;;;;;;-146.25;100.00;52581.09;2079539;28;20050;-61
2024/04/02 00:02:21;;;;;;;9.75;5.70;;;;;;;-146.25;100.00;52554.75;2079380;28;20516;-61
2024/04/02 00:03:22;;;;;;;9.52;5.88;;;;;;;-146.25;100.00;52595.28;2079579;28;20090;-60
2024/04/02 00:04:25;;;;;;;6.25;5.18;;;;;;;-146.25;100.00;52556.75;2087539;28;20942;-61
2024/04/02 00:05:26;;;;;;;6.55;4.82;;;;;;;-146.25;100.00;52556.75;2087078;28;20041;-62
2024/04/02 00:06:26;;;;;;;13.48;5.93;;;;;;;-146.25;100.00;52589.22;2087103;28;20132;-61
2024/04/02 00:07:27;;;;;;;10.23;5.25;;;;;;;-146.25;100.00;52558.78;2087242;28;20072;-62
2024/04/02 00:08:29;;;;;;;9.25;5.15;;;;;;;-146.25;100.00;52544.59;2071095;28;20425;-61
2024/04/02 00:09:30;;;;;;;8.05;5.05;;;;;;;-146.25;100.00;52546.63;2079031;28;20894;-61
2024/04/02 00:10:32;;;;;;;12.52;5.57;;;;;;;-146.25;100.00;52566.91;2087071;28;20041;-60
2024/04/02 00:11:33;;;;;;;9.23;5.10;;;;;;;-146.25;100.00;52591.25;2079006;28;20093;-61
2024/04/02 00:12:34;;;;;;;9.00;5.00;;;;;;;-146.25;100.00;52575.00;2062898;28;20035;-61
2024/04/02 00:13:35;;;;;;;7.78;5.07;;;;;;;-146.25;100.00;52536.50;2079300;28;20061;-61
2024/04/02 00:14:36;;;;;;;11.13;5.38;;;;;;;-146.25;100.00;52552.72;2078610;28;20046;-61
2024/04/02 00:15:37;;;;;;;10.38;5.78;;;;;;;-146.25;100.00;52585.16;2062822;28;20035;-61
2024/04/02 00:16:38;;;;;;;6.20;4.72;;;;;;;-146.25;100.00;52579.06;2078661;28;20100;-61
2024/04/02 00:17:41;;;;;;;10.60;5.10;;;;;;;-146.25;100.00;52566.91;2087599;28;20826;-60
2024/04/02 00:18:42;;;;;;;9.40;5.55;;;;;;;-146.25;100.00;52575.00;2079761;28;20950;-61
2024/04/02 00:19:43;;;;;;;7.25;5.10;;;;;;;-146.25;100.00;52591.25;2087308;28;20045;-61
2024/04/02 00:20:44;;;;;;;11.00;6.22;;;;;;;-146.25;100.00;52573.00;2095380;28;20502;-61
2024/04/02 00:21:44;;;;;;;9.45;6.07;;;;;;;-146.25;100.00;52577.03;2095858;28;20042;-61
2024/04/02 00:22:45;;;;;;;7.40;5.53;;;;;;;-146.25;100.00;52577.03;2087584;28;20049;-61
2024/04/02 00:23:48;;;;;;;8.55;5.53;;;;;;;-146.25;100.00;52585.16;2087266;28;20065;-61
2024/04/02 00:24:49;;;;;;;9.10;5.80;;;;;;;-146.25;100.00;52528.38;2095083;28;20040;-60
2024/04/02 00:25:59;;;;;;;9.63;5.18;;;;;;;-146.25;100.00;52593.25;2095684;28;20041;-60
2024/04/02 00:27:00;;;;;;;9.45;5.60;;;;;;;-146.25;100.00;52560.81;2086997;28;20040;-60
2024/04/02 00:28:01;;;;;;;9.40;5.55;;;;;;;-146.25;100.00;52558.78;2078892;28;20048;-60
2024/04/02 00:29:01;;;;;;;9.50;5.05;;;;;;;-146.25;100.00;52579.06;2078548;28;20074;-61
2024/04/02 00:30:04;;;;;;;7.28;5.50;;;;;;;-146.25;100.00;52597.31;2071328;28;20046;-61
2024/04/02 00:31:06;;;;;;;13.02;5.93;;;;;;;-146.25;100.00;52583.13;2070584;28;20038;-61
2024/04/02 00:32:07;;;;;;;7.50;5.35;;;;;;;-146.25;100.00;52566.91;2062630;28;20043;-60
2024/04/02 00:33:10;;;;;;;8.35;5.40;;;;;;;-146.25;100.00;52587.19;2071325;28;20044;-60
2024/04/02 00:34:10;;;;;;;9.45;5.55;;;;;;;-146.25;100.00;52591.25;2078900;28;20042;-61
2024/04/02 00:35:11;;;;;;;9.77;5.85;;;;;;;-146.25;100.00;52593.25;2070528;28;20046;-61
2024/04/02 00:36:12;;;;;;;9.48;5.63;;;;;;;-146.25;100.00;52530.41;2078845;28;20444;-61
2024/04/02 00:37:13;;;;;;;10.90;5.15;;;;;;;-146.25;100.00;52550.69;2078275;28;20042;-62
2024/04/02 00:38:14;;;;;;;10.60;5.97;;;;;;;-146.25;100.00;52566.91;2087395;28;20033;-61
2024/04/02 00:39:15;;;;;;;12.10;6.10;;;;;;;-146.25;100.00;52546.63;2070586;28;20373;-62
2024/04/02 00:40:16;;;;;;;11.55;6.93;;;;;;;-146.25;100.00;52562.84;2070612;28;20074;-61
2024/04/02 00:41:17;;;;;;;10.13;5.13;;;;;;;-146.25;100.00;52583.13;2054360;28;20774;-61
2024/04/02 00:42:18;;;;;;;9.10;6.20;;;;;;;-146.25;100.00;52560.81;2062923;28;20106;-59
2024/04/02 00:43:19;;;;;;;10.23;5.57;;;;;;;-146.25;100.00;52575.00;2070722;28;20054;-60
2024/04/02 00:44:20;;;;;;;8.80;5.82;;;;;;;-146.25;100.00;52556.75;2062680;28;20050;-61
2024/04/02 00:45:24;;;;;;;11.18;6.35;;;;;;;-146.25;100.00;52548.66;2070231;28;20588;-60
2024/04/02 00:46:24;;;;;;;10.80;5.90;;;;;;;-146.25;100.00;52542.56;2079206;28;21005;-61
2024/04/02 00:47:25;;;;;;;12.73;6.25;;;;;;;-146.25;100.00;52542.56;2078832;28;20042;-61
2024/04/02 00:48:27;;;;;;;10.00;6.20;;;;;;;-146.25;100.00;52591.25;2078942;28;20042;-61
2024/04/02 00:49:28;;;;;;;7.68;6.85;;;;;;;-146.25;100.00;52554.75;2086595;28;20068;-61
2024/04/02 00:50:29;;;;;;;8.68;6.30;;;;;;;-146.25;100.00;52568.94;2078908;28;21041;-61
2024/04/02 00:51:30;;;;;;;9.20;6.40;;;;;;;-146.25;100.00;52556.75;2071090;28;20110;-61
2024/04/02 00:52:32;;;;;;;11.88;5.60;;;;;;;-146.25;100.00;52554.75;2070490;28;20042;-61
2024/04/02 00:53:33;;;;;;;8.57;6.78;;;;;;;-146.25;100.00;52577.03;2062767;28;20122;-61
2024/04/02 00:54:34;;;;;;;8.48;5.95;;;;;;;-146.25;100.00;52566.91;2062733;28;20119;-61
2024/04/02 00:55:37;;;;;;;9.43;6.25;;;;;;;-146.25;100.00;52562.84;2062475;28;20035;-62
2024/04/02 00:56:41;;;;;;;10.40;6.43;;;;;;;-146.25;100.00;52554.75;2071074;28;20035;-62
2024/04/02 00:57:44;;;;;;;9.02;6.30;;;;;;;-146.25;100.00;52556.75;2062574;28;20410;-60
2024/04/02 00:58:45;;;;;;;7.10;6.03;;;;;;;-146.25;100.00;52554.75;2063506;28;20043;-60
2024/04/02 00:59:47;;;;;;;12.35;6.50;;;;;;;-146.25;100.00;52558.78;2070302;28;20043;-60
2024/04/02 01:00:50;;;;;;;9.23;6.25;;;;;;;-146.25;100.00;52524.31;2079023;28;20038;-60
2024/04/02 01:01:51;;;;;;;12.43;6.72;;;;;;;-146.25;100.00;52581.09;2086797;28;20053;-61
2024/04/02 01:02:52;;;;;;;10.93;6.47;;;;;;;-146.25;100.00;52570.97;2078657;28;20046;-61
2024/04/02 01:03:55;;;;;;;10.30;6.25;;;;;;;-146.25;100.00;52591.25;2070386;28;20111;-61
2024/04/02 01:04:56;;;;;;;11.43;5.97;;;;;;;-146.25;100.00;52566.91;2030581;28;1160229;-62
2024/04/02 01:05:58;;;;;;;11.15;6.80;;;;;;;-146.25;100.00;52542.56;2071217;28;21140;-62
2024/04/02 01:06:59;;;;;;;11.45;6.55;;;;;;;-146.25;100.00;52575.00;2071375;28;20113;-62
2024/04/02 01:08:00;;;;;;;10.55;6.55;;;;;;;-146.25;100.00;52593.25;2071171;28;20031;-62
2024/04/02 01:09:01;;;;;;;10.35;6.75;;;;;;;-146.25;100.00;52554.75;2071084;28;20944;-62
2024/04/02 01:10:02;;;;;;;8.82;6.22;;;;;;;-146.25;100.00;52575.00;2080712;28;20050;-61
2024/04/02 01:11:03;;;;;;;10.07;6.38;;;;;;;-146.25;100.00;52562.84;2080722;28;20046;-62
2024/04/02 01:12:07;;;;;;;12.27;6.72;;;;;;;-146.25;100.00;52575.00;2072710;28;20037;-61
2024/04/02 01:13:08;;;;;;;14.43;7.40;;;;;;;-146.25;100.00;52587.19;2064512;28;20043;-62
2024/04/02 01:14:09;;;;;;;9.13;6.53;;;;;;;-146.25;100.00;52579.06;2065271;28;20046;-61
2024/04/02 01:15:10;;;;;;;13.70;7.18;;;;;;;-146.25;100.00;52575.00;2072241;28;20049;-61
2024/04/02 01:16:13;;;;;;;7.70;6.85;;;;;;;-146.25;100.00;52587.19;2080783;28;20640;-61
2024/04/02 01:17:16;;;;;;;10.23;6.15;;;;;;;-146.25;100.00;52566.91;2080613;28;20034;-61
2024/04/02 01:18:16;;;;;;;9.70;7.10;;;;;;;-146.25;100.00;52581.09;2072710;28;20994;-61
2024/04/02 01:19:17;;;;;;;8.43;6.65;;;;;;;-146.25;100.00;52583.13;2080680;28;20038;-61
2024/04/02 01:20:18;;;;;;;14.60;8.00;;;;;;;-146.25;100.00;52540.53;2080653;28;20529;-63
2024/04/02 01:21:20;;;;;;;10.63;7.15;;;;;;;-146.25;100.00;52570.97;2072424;28;20039;-60
2024/04/02 01:22:23;;;;;;;11.63;7.05;;;;;;;-146.25;100.00;52560.81;2072565;28;20022;-62
2024/04/02 01:23:24;;;;;;;9.00;7.22;;;;;;;-146.25;100.00;52534.47;2072749;28;20034;-61
2024/04/02 01:24:26;;;;;;;12.52;7.60;;;;;;;-146.25;100.00;52560.81;2072771;28;20047;-62
2024/04/02 01:25:27;;;;;;;11.32;7.00;;;;;;;-146.25;100.00;52552.72;2064082;28;20050;-61
2024/04/02 01:26:29;;;;;;;10.60;6.82;;;;;;;-146.25;100.00;52562.84;2064466;28;20047;-61
2024/04/02 01:27:29;;;;;;;13.70;8.20;;;;;;;-146.25;100.00;52558.78;2072382;28;20023;-61
2024/04/02 01:28:30;;;;;;;12.38;7.32;;;;;;;-146.25;100.00;52562.84;2072464;28;20042;-61
2024/04/02 01:29:31;;;;;;;9.60;7.55;;;;;;;-146.25;100.00;52570.97;2071859;28;20477;-60
2024/04/02 01:30:32;;;;;;;9.38;7.05;;;;;;;-146.25;100.00;52552.72;2072235;28;20877;-61
2024/04/02 01:31:33;;;;;;;12.63;8.20;;;;;;;-146.25;100.00;52526.34;2072080;28;20042;-61
2024/04/02 01:32:34;;;;;;;9.73;7.38;;;;;;;-146.25;100.00;52570.97;2072641;28;20970;-62
2024/04/02 01:33:35;;;;;;;10.85;7.50;;;;;;;-146.25;100.00;52526.34;2072265;28;20112;-61
2024/04/02 01:34:38;;;;;;;10.32;7.63;;;;;;;-146.25;100.00;52575.00;2072609;28;20053;-61
2024/04/02 01:35:39;;;;;;;11.20;7.60;;;;;;;-146.25;100.00;52526.34;2072415;28;20035;-61
2024/04/02 01:36:39;;;;;;;9.95;7.60;;;;;;;-146.25;100.00;52524.31;2072668;28;20408;-61
2024/04/02 01:37:41;;;;;;;13.40;8.48;;;;;;;-146.25;100.00;52552.72;2080492;28;20507;-61
2024/04/02 01:38:42;;;;;;;12.75;8.30;;;;;;;-146.25;100.00;52579.06;2088881;28;20038;-61
2024/04/02 01:39:42;;;;;;;13.07;8.05;;;;;;;-146.25;100.00;52589.22;2088397;28;20046;-61
2024/04/02 01:40:43;;;;;;;11.95;8.00;;;;;;;-146.25;100.00;52556.75;2080678;28;20049;-61
2024/04/02 01:41:44;;;;;;;11.38;8.50;;;;;;;-146.25;100.00;52566.91;2072712;28;20480;-61
2024/04/02 01:42:45;;;;;;;12.93;8.07;;;;;;;-146.25;100.00;52577.03;2072735;28;20070;-61
2024/04/02 01:43:45;;;;;;;13.35;8.13;;;;;;;-146.25;100.00;52558.78;2064040;28;20043;-61
2024/04/02 01:44:46;;;;;;;13.13;7.78;;;;;;;-146.25;100.00;52540.53;2080122;28;20038;-61
2024/04/02 01:45:47;;;;;;;12.77;8.20;;;;;;;-146.25;100.00;52546.63;2080417;28;20461;-62
2024/04/02 01:46:48;;;;;;;11.77;7.70;;;;;;;-146.25;100.00;52546.63;2072082;28;20042;-61
2024/04/02 01:47:49;;;;;;;15.15;7.53;;;;;;;-146.25;100.00;52524.31;2072346;28;20517;-61
2024/04/02 01:48:49;;;;;;;11.73;7.25;;;;;;;-146.25;100.00;52575.00;2080614;28;20500;-61
2024/04/02 01:49:50;;;;;;;10.43;7.53;;;;;;;-146.25;100.00;52530.41;2080245;28;20120;-61
2024/04/02 01:50:51;;;;;;;12.23;8.05;;;;;;;-146.25;100.00;52566.91;2072218;28;20424;-60
2024/04/02 01:51:52;;;;;;;9.13;7.30;;;;;;;-146.25;100.00;52542.56;2080375;28;20559;-60
2024/04/02 01:52:52;;;;;;;11.65;7.85;;;;;;;-146.25;100.00;52575.00;2088584;28;20160;-61
2024/04/02 01:53:53;;;;;;;11.25;7.97;;;;;;;-146.25;100.00;52587.19;2080542;28;20046;-60
2024/04/02 01:54:54;;;;;;;11.48;8.40;;;;;;;-146.25;100.00;52575.00;2072109;28;20038;-60
2024/04/02 01:55:55;;;;;;;10.88;8.25;;;;;;;-146.25;100.00;52546.63;2080467;28;20038;-61
2024/04/02 01:56:56;;;;;;;13.35;8.60;;;;;;;-146.25;100.00;52558.78;2088928;28;20045;-61
2024/04/02 01:57:56;;;;;;;11.90;7.80;;;;;;;-146.25;100.00;52558.78;2071940;28;20038;-61
2024/04/02 01:58:57;;;;;;;10.25;8.00;;;;;;;-146.25;100.00;52560.81;2072372;28;20045;-61
2024/04/02 01:59:58;;;;;;;11.07;7.65;;;;;;;-146.25;100.00;52550.69;2071523;28;20046;-62
2024/04/02 02:00:59;;;;;;;8.55;7.47;;;;;;;-146.25;100.00;52579.06;2077525;28;20081;-61
2024/04/02 02:02:01;;;;;;;11.15;8.02;;;;;;;-146.25;100.00;52552.72;2080527;28;20171;-61
2024/04/02 02:03:03;;;;;;;9.23;7.70;;;;;;;-146.25;100.00;52570.97;2080085;28;20037;-60
2024/04/02 02:04:05;;;;;;;11.35;7.60;;;;;;;-146.25;100.00;52575.00;2080564;28;20045;-61
2024/04/02 02:05:06;;;;;;;9.25;7.60;;;;;;;-146.25;100.00;52544.59;2087922;28;20037;-60
2024/04/02 02:06:07;;;;;;;14.52;8.48;;;;;;;-146.25;100.00;52581.09;2088639;28;20083;-60
2024/04/02 02:07:08;;;;;;;12.73;7.50;;;;;;;-146.25;100.00;52564.88;2088130;28;20077;-60
2024/04/02 02:08:11;;;;;;;12.45;8.40;;;;;;;-146.25;100.00;52534.47;2088717;28;20446;-60
2024/04/02 02:09:14;;;;;;;13.23;7.95;;;;;;;-146.25;100.00;52534.47;2080935;28;20092;-60
2024/04/02 02:10:16;;;;;;;13.10;8.27;;;;;;;-146.25;100.00;52597.31;2080698;28;20958;-60
2024/04/02 02:11:17;;;;;;;11.90;8.38;;;;;;;-146.25;100.00;52558.78;2080229;28;20799;-59
2024/04/02 02:12:18;;;;;;;12.15;8.35;;;;;;;-146.25;100.00;52583.13;2088112;28;20048;-60
2024/04/02 02:13:19;;;;;;;13.38;8.48;;;;;;;-146.25;100.00;52534.47;2087834;28;20586;-61
2024/04/02 02:14:22;;;;;;;11.77;8.10;;;;;;;-146.25;100.00;52568.94;2088409;28;20044;-60
2024/04/02 02:15:23;;;;;;;11.65;9.02;;;;;;;-146.25;100.00;52530.41;2095787;28;20041;-61
2024/04/02 02:16:24;;;;;;;11.18;8.43;;;;;;;-146.25;100.00;52550.69;2080677;28;20038;-61
2024/04/02 02:17:25;;;;;;;12.80;8.95;;;;;;;-146.25;100.00;52556.75;2080128;28;20128;-61
2024/04/02 02:18:28;;;;;;;10.80;8.52;;;;;;;-146.25;100.00;52573.00;2088748;28;20439;-60
2024/04/02 02:19:29;;;;;;;12.77;8.85;;;;;;;-146.25;100.00;52568.94;2088543;28;20041;-61
2024/04/02 02:20:30;;;;;;;12.38;9.50;;;;;;;-146.25;100.00;52552.72;2088238;28;20041;-60
2024/04/02 02:21:31;;;;;;;11.68;8.75;;;;;;;-146.25;100.00;52554.75;2087596;28;20476;-60
2024/04/02 02:22:34;;;;;;;13.30;8.60;;;;;;;-146.25;100.00;52568.94;2088636;28;20053;-61
2024/04/02 02:23:35;;;;;;;12.43;9.15;;;;;;;-146.25;100.00;52558.78;2079750;28;20942;-61
2024/04/02 02:24:36;;;;;;;13.23;9.30;;;;;;;-146.25;100.00;52554.75;2072129;28;20082;-61
2024/04/02 02:25:37;;;;;;;11.82;8.82;;;;;;;-146.25;100.00;52573.00;2079829;28;20046;-61
2024/04/02 02:26:38;;;;;;;11.98;8.82;;;;;;;-146.25;100.00;52538.53;2096515;28;20514;-60
2024/04/02 02:27:42;;;;;;;12.15;9.88;;;;;;;-146.25;100.00;52591.25;2088196;28;20034;-60
2024/04/02 02:28:43;;;;;;;16.00;10.15;;;;;;;-146.25;100.00;52587.19;2079899;28;20044;-61
2024/04/02 02:29:44;;;;;;;13.32;8.55;;;;;;;-146.25;100.00;52558.78;2074476;28;20053;-61
2024/04/02 02:30:45;;;;;;;10.02;9.00;;;;;;;-146.25;100.00;52526.34;2071833;28;20050;-61
2024/04/02 02:31:46;;;;;;;11.10;8.90;;;;;;;-146.25;100.00;52599.34;2071533;28;20962;-61
2024/04/02 02:32:47;;;;;;;12.65;9.57;;;;;;;-146.25;100.00;52568.94;2071963;28;20042;-61
2024/04/02 02:33:48;;;;;;;14.68;10.30;;;;;;;-146.25;100.00;52583.13;2071493;28;20042;-62
2024/04/02 02:34:49;;;;;;;12.05;9.48;;;;;;;-146.25;100.00;52570.97;2072183;28;20058;-61
2024/04/02 02:35:53;;;;;;;16.35;10.32;;;;;;;-146.25;100.00;52544.59;2071950;28;20046;-61
2024/04/02 02:36:54;;;;;;;14.63;9.52;;;;;;;-146.25;100.00;52554.75;2080796;28;20041;-61
2024/04/02 02:37:55;;;;;;;14.68;9.93;;;;;;;-146.25;100.00;52508.09;2080070;28;20041;-61
2024/04/02 02:38:56;;;;;;;13.02;9.85;;;;;;;-146.25;100.00;52550.69;2073655;28;20046;-61
2024/04/02 02:39:57;;;;;;;13.18;10.02;;;;;;;-146.25;100.00;52583.13;2081551;28;20149;-61
2024/04/02 02:41:00;;;;;;;13.20;9.60;;;;;;;-146.25;100.00;52560.81;2081422;28;20532;-61
2024/04/02 02:42:01;;;;;;;13.93;9.60;;;;;;;-146.25;100.00;52575.00;2079852;28;20994;-60
2024/04/02 02:43:01;;;;;;;13.13;10.23;;;;;;;-146.25;100.00;52575.00;2079967;28;20041;-60
2024/04/02 02:44:03;;;;;;;15.82;9.95;;;;;;;-146.25;100.00;52570.97;2071795;28;20152;-61
2024/04/02 02:45:07;;;;;;;12.93;10.00;;;;;;;-146.25;100.00;52554.75;2071896;28;20034;-61
2024/04/02 02:46:08;;;;;;;13.38;10.18;;;;;;;-146.25;100.00;52605.44;2071820;28;20039;-61
2024/04/02 02:47:09;;;;;;;14.88;10.25;;;;;;;-146.25;100.00;52552.72;2080131;28;20152;-61
2024/04/02 02:48:09;;;;;;;14.52;9.18;;;;;;;-146.25;100.00;52554.75;2088208;28;20471;-60
2024/04/02 02:49:13;;;;;;;11.13;9.50;;;;;;;-146.25;100.00;52546.63;2080275;28;20042;-60
2024/04/02 02:50:13;;;;;;;12.65;9.98;;;;;;;-146.25;100.00;52591.25;2071932;28;20780;-61
2024/04/02 02:51:14;;;;;;;12.80;10.00;;;;;;;-146.25;100.00;52546.63;2071963;28;20136;-60
2024/04/02 02:52:15;;;;;;;12.35;10.35;;;;;;;-146.25;100.00;52550.69;2071862;28;20150;-61
2024/04/02 02:53:17;;;;;;;11.93;9.63;;;;;;;-146.25;100.00;52540.53;2072012;28;20400;-60
2024/04/02 02:54:17;;;;;;;13.93;9.98;;;;;;;-146.25;100.00;52564.88;2085662;28;20891;-61
2024/04/02 02:55:19;;;;;;;12.32;9.32;;;;;;;-146.25;100.00;52573.00;2079660;28;20743;-61
2024/04/02 02:56:22;;;;;;;12.57;9.60;;;;;;;-146.25;100.00;52577.03;2080242;28;20143;-61
2024/04/02 02:57:25;;;;;;;13.23;9.27;;;;;;;-146.25;100.00;52540.53;2079509;28;20042;-61
2024/04/02 02:58:26;;;;;;;12.07;9.43;;;;;;;-146.25;100.00;52564.88;2072092;28;21411;-61
2024/04/02 02:59:27;;;;;;;11.85;9.05;;;;;;;-146.25;100.00;52601.38;2077017;28;20046;-61
2024/04/02 03:00:28;;;;;;;12.23;8.93;;;;;;;-146.25;100.00;52573.00;2071692;28;20078;-60
2024/04/02 03:01:28;;;;;;;12.85;9.23;;;;;;;-146.25;100.00;52566.91;2072233;28;20446;-61
2024/04/02 03:02:29;;;;;;;13.40;9.85;;;;;;;-146.25;100.00;52566.91;2079179;28;20072;-61
2024/04/02 03:03:30;;;;;;;11.52;9.57;;;;;;;-146.25;100.00;52534.47;2079836;28;20042;-61
2024/04/02 03:04:31;;;;;;;10.90;8.95;;;;;;;-146.25;100.00;52532.44;2079650;28;20109;-61
2024/04/02 03:05:31;;;;;;;11.93;9.05;;;;;;;-146.25;100.00;52534.47;2079845;28;20042;-61
2024/04/02 03:06:32;;;;;;;13.70;9.18;;;;;;;-146.25;100.00;52581.09;2088235;28;20404;-61
2024/04/02 03:07:36;;;;;;;10.90;9.25;;;;;;;-146.25;100.00;52591.25;2095950;28;20499;-61
2024/04/02 03:08:37;;;;;;;13.45;8.88;;;;;;;-146.25;100.00;52534.47;2096274;28;20918;-62
2024/04/02 03:09:41;;;;;;;9.35;8.32;;;;;;;-146.25;100.00;52554.75;2088006;28;20104;-60
2024/04/02 03:10:42;;;;;;;11.90;9.02;;;;;;;-146.25;100.00;52562.84;2088123;28;20959;-61
2024/04/02 03:11:42;;;;;;;10.82;8.52;;;;;;;-146.25;100.00;52544.59;2096295;28;20044;-60
2024/04/02 03:12:43;;;;;;;10.40;9.07;;;;;;;-146.25;100.00;52558.78;2096535;28;20538;-61
2024/04/02 03:13:46;;;;;;;11.32;8.88;;;;;;;-146.25;100.00;52522.28;2096399;28;20037;-61
2024/04/02 03:14:47;;;;;;;9.85;8.32;;;;;;;-146.25;100.00;52562.84;2095990;28;20075;-62
2024/04/02 03:15:48;;;;;;;12.90;8.68;;;;;;;-146.25;100.00;52577.03;2096228;28;20072;-60
2024/04/02 03:16:49;;;;;;;10.75;8.27;;;;;;;-146.25;100.00;52558.78;2087946;28;20041;-61
2024/04/02 03:17:49;;;;;;;10.60;9.20;;;;;;;-146.25;100.00;52566.91;2079782;28;20052;-61
2024/04/02 03:18:50;;;;;;;11.55;9.18;;;;;;;-146.25;100.00;52560.81;2080210;28;20034;-61
2024/04/02 03:19:52;;;;;;;13.00;8.82;;;;;;;-146.25;100.00;52577.03;2087789;28;20048;-61
2024/04/02 03:20:53;;;;;;;11.80;8.23;;;;;;;-146.25;100.00;52562.84;2095851;28;20048;-61
2024/04/02 03:21:54;;;;;;;11.18;8.55;;;;;;;-146.25;100.00;52564.88;2095882;28;20355;-60
2024/04/02 03:22:54;;;;;;;13.02;8.80;;;;;;;-146.25;100.00;52585.16;2096456;28;20518;-61
2024/04/02 03:23:56;;;;;;;10.32;8.60;;;;;;;-146.25;100.00;52542.56;2087849;28;20060;-61
2024/04/02 03:25:01;;;;;;;13.60;8.43;;;;;;;-146.25;100.00;52558.78;2088675;28;20080;-61
2024/04/02 03:26:02;;;;;;;12.98;8.60;;;;;;;-146.25;100.00;52548.66;2095922;28;20032;-60
2024/04/02 03:27:05;;;;;;;10.07;7.85;;;;;;;-146.25;100.00;52583.13;2087873;28;20103;-60
2024/04/02 03:28:06;;;;;;;10.95;8.65;;;;;;;-146.25;100.00;52583.13;2087824;28;20048;-61
2024/04/02 03:29:07;;;;;;;11.25;9.23;;;;;;;-146.25;100.00;52579.06;2088186;28;20205;-60
2024/04/02 03:30:09;;;;;;;11.00;8.85;;;;;;;-146.25;100.00;52570.97;2079288;28;20038;-61
2024/04/02 03:31:10;;;;;;;10.15;9.05;;;;;;;-146.25;100.00;52518.25;2080037;28;20038;-61
2024/04/02 03:32:10;;;;;;;13.90;9.02;;;;;;;-146.25;100.00;52548.66;2071167;28;20575;-61
2024/04/02 03:33:11;;;;;;;11.88;9.35;;;;;;;-146.25;100.00;52583.13;2071887;28;20082;-61
2024/04/02 03:34:12;;;;;;;14.05;8.95;;;;;;;-146.25;100.00;52542.56;2071419;28;20050;-60
2024/04/02 03:35:13;;;;;;;11.80;9.05;;;;;;;-146.25;100.00;52566.91;2079704;28;20049;-61
2024/04/02 03:36:14;;;;;;;13.02;9.93;;;;;;;-146.25;100.00;52550.69;2079577;28;20140;-61
2024/04/02 03:37:15;;;;;;;11.40;8.75;;;;;;;-146.25;100.00;52577.03;2071762;28;20039;-61
2024/04/02 03:38:16;;;;;;;12.68;9.38;;;;;;;-146.25;100.00;52570.97;2071585;28;20042;-61
2024/04/02 03:39:17;;;;;;;14.73;9.20;;;;;;;-146.25;100.00;52540.53;2087921;28;20850;-60
2024/04/02 03:40:17;;;;;;;12.13;9.43;;;;;;;-146.25;100.00;52524.31;2079589;28;20053;-61
2024/04/02 03:41:18;;;;;;;12.40;9.30;;;;;;;-146.25;100.00;52554.75;2079311;28;20049;-61
2024/04/02 03:42:19;;;;;;;13.95;10.15;;;;;;;-146.25;100.00;52550.69;2087653;28;20950;-61
2024/04/02 03:43:20;;;;;;;11.15;9.75;;;;;;;-146.25;100.00;52560.81;2088217;28;20080;-61
2024/04/02 03:44:23;;;;;;;12.80;9.70;;;;;;;-146.25;100.00;52514.19;2079853;28;20551;-61
2024/04/02 03:45:24;;;;;;;16.27;10.68;;;;;;;-146.25;100.00;52615.56;2077038;28;20053;-61
2024/04/02 03:46:25;;;;;;;12.88;9.85;;;;;;;-146.25;100.00;52566.91;2082551;28;20125;-60
2024/04/02 03:47:26;;;;;;;12.93;10.65;;;;;;;-146.25;100.00;52516.22;2088139;28;20065;-60
2024/04/02 03:48:27;;;;;;;13.30;10.98;;;;;;;-146.25;100.00;52558.78;2079710;28;20105;-60
2024/04/02 03:49:28;;;;;;;13.95;10.63;;;;;;;-146.25;100.00;52560.81;2079512;28;20440;-61
2024/04/02 03:50:31;;;;;;;14.27;11.13;;;;;;;-146.25;100.00;52575.00;2087684;28;20042;-61
2024/04/02 03:51:32;;;;;;;16.10;10.65;;;;;;;-146.25;100.00;52566.91;2087788;28;20049;-61
2024/04/02 03:52:33;;;;;;;16.05;11.38;;;;;;;-146.25;100.00;52575.00;2079745;28;20045;-62
2024/04/02 03:53:34;;;;;;;12.93;11.35;;;;;;;-146.25;100.00;52550.69;2079383;28;20054;-60
2024/04/02 03:54:34;;;;;;;16.17;12.02;;;;;;;-146.25;100.00;52605.44;2088117;28;20416;-61
2024/04/02 03:55:36;;;;;;;14.70;11.07;;;;;;;-146.25;100.00;52587.19;2096024;28;20081;-61
2024/04/02 03:56:37;;;;;;;14.73;11.95;;;;;;;-146.25;100.00;52599.34;2088115;28;20412;-61
2024/04/02 03:57:39;;;;;;;17.10;12.40;;;;;;;-146.25;100.00;52575.00;2087584;28;20042;-60
2024/04/02 03:58:40;;;;;;;16.27;12.55;;;;;;;-146.25;100.00;52587.19;2079721;28;20049;-60
2024/04/02 03:59:41;;;;;;;14.48;11.63;;;;;;;-146.25;100.00;52528.38;2066664;28;20043;-61
2024/04/02 04:00:42;;;;;;;14.50;11.98;;;;;;;-146.25;100.00;52554.75;2076254;28;20113;-60
2024/04/02 04:01:43;;;;;;;17.02;11.57;;;;;;;-146.25;100.00;52564.88;2079114;28;20077;-61
2024/04/02 04:02:45;;;;;;;15.75;11.45;;;;;;;-146.25;100.00;52550.69;2079654;28;20109;-61
2024/04/02 04:03:45;;;;;;;14.05;11.90;;;;;;;-146.25;100.00;52568.94;2071510;28;20144;-61
2024/04/02 04:04:49;;;;;;;14.95;12.02;;;;;;;-146.25;100.00;52575.00;2079544;28;20061;-62
2024/04/02 04:06:04;;;;;;;14.82;11.52;;;;;;;-146.25;100.00;52570.97;2087888;28;20030;-61
2024/04/02 04:07:05;;;;;;;16.05;11.82;;;;;;;-146.25;100.00;52554.75;2073695;28;20038;-61
2024/04/02 04:08:06;;;;;;;16.63;11.07;;;;;;;-146.25;100.00;52556.75;2072003;28;20142;-60
2024/04/02 04:09:10;;;;;;;13.90;11.27;;;;;;;-146.25;100.00;52532.44;2079480;28;20034;-62
2024/04/02 04:10:10;;;;;;;14.65;10.85;;;;;;;-146.25;100.00;52587.19;2079765;28;20045;-62
2024/04/02 04:11:11;;;;;;;17.08;10.88;;;;;;;-146.25;100.00;52552.72;2079748;28;20050;-62
2024/04/02 04:12:12;;;;;;;14.40;11.02;;;;;;;-146.25;100.00;52542.56;2087685;28;20072;-61
2024/04/02 04:13:15;;;;;;;18.08;10.68;;;;;;;-146.25;100.00;52548.66;2096161;28;20120;-63
2024/04/02 04:14:16;;;;;;;15.55;11.45;;;;;;;-146.25;100.00;52528.38;2096043;28;20107;-61
2024/04/02 04:15:17;;;;;;;15.07;10.90;;;;;;;-146.25;100.00;52530.41;2087661;28;21012;-62
2024/04/02 04:16:19;;;;;;;13.90;10.70;;;;;;;-146.25;100.00;52566.91;2087277;28;20038;-61
2024/04/02 04:17:20;;;;;;;15.05;10.80;;;;;;;-146.25;100.00;52566.91;2087969;28;20042;-62
2024/04/02 04:18:22;;;;;;;14.00;10.52;;;;;;;-146.25;100.00;52544.59;2087585;28;20523;-61
2024/04/02 04:19:23;;;;;;;12.82;10.57;;;;;;;-146.25;100.00;52577.03;2087525;28;20071;-62
2024/04/02 04:20:30;;;;;;;12.57;10.48;;;;;;;-146.25;100.00;52585.16;2079720;28;20946;-60
2024/04/02 04:21:31;;;;;;;14.90;10.70;;;;;;;-146.25;100.00;52560.81;2103073;22;20037;-64
2024/04/02 04:22:32;;;;;;;12.35;10.60;;;;;;;-146.25;100.00;52573.00;2098870;28;20041;-64
2024/04/02 04:23:33;;;;;;;14.98;10.52;;;;;;;-146.25;100.00;52550.69;2095887;28;20041;-65
2024/04/02 04:24:34;;;;;;;15.00;10.50;;;;;;;-146.25;100.00;52587.19;2095846;28;20041;-66
2024/04/02 04:25:34;;;;;;;14.65;9.68;;;;;;;-146.25;100.00;52579.06;2096415;28;20044;-65
2024/04/02 04:26:35;;;;;;;13.55;9.75;;;;;;;-146.25;100.00;52591.25;2095807;28;20496;-64
2024/04/02 04:27:38;;;;;;;14.27;10.18;;;;;;;-146.25;100.00;52558.78;2096241;28;20041;-65
2024/04/02 04:28:39;;;;;;;14.88;10.60;;;;;;;-146.25;100.00;52609.50;2087375;28;20049;-65
2024/04/02 04:29:40;;;;;;;15.25;9.68;;;;;;;-146.25;100.00;52550.69;2079224;28;20515;-65
2024/04/02 04:30:40;;;;;;;12.23;10.38;;;;;;;-146.25;100.00;52560.81;2085093;28;20049;-65
2024/04/02 04:31:48;;;;;;;13.40;10.75;;;;;;;-146.25;100.00;52558.78;2087292;28;20117;-65
2024/04/02 04:32:49;;;;;;;12.02;10.20;;;;;;;-146.25;100.00;52570.97;2087716;28;20030;-66
2024/04/02 04:33:49;;;;;;;12.23;10.07;;;;;;;-146.25;100.00;52599.34;2096356;28;20053;-65
2024/04/02 04:34:50;;;;;;;15.43;9.98;;;;;;;-146.25;100.00;52566.91;2095569;28;20041;-64
2024/04/02 04:35:53;;;;;;;13.40;10.63;;;;;;;-146.25;100.00;52532.44;2087691;28;20037;-66